Time;durP1;ratioP1;P1;durP2;ratioP2;P2;SDS_P1;SDS_P2;PMS_P1;PMS_P2;Temp;Humidity;BMP_temperature;BMP_pressure;BME280_temperature;BME280_humidity;BME280_pressure;Samples;Min_cycle;Max_cycle;Signal;HPM_P1;HPM_P2
2021/01/03 00:02:02;;;;;;;50.30;23.95;;;;;;;-0.45;88.84;99966.62;1703506;83;21163;-64
2021/01/03 00:04:32;;;;;;;58.50;24.60;;;;;;;-0.45;88.88;99973.04;1702161;83;21176;-64
2021/01/03 00:07:00;;;;;;;45.98;23.38;;;;;;;-0.38;89.08;99979.91;1706807;83;21626;-64
2021/01/03 00:09:27;;;;;;;;;;;;;;;-0.32;89.08;99969.64;1717039;83;20986;-64
2021/01/03 00:11:54;;;;;;;41.60;21.45;;;;;;;-0.29;88.99;99982.47;1701498;83;21839;-64
2021/01/03 00:14:21;;;;;;;;;;;;;;;-0.32;88.95;99990.17;1718622;83;21093;-64
2021/01/03 00:16:54;;;;;;;35.85;18.15;;;;;;;-0.35;88.95;99990.17;1711161;83;20321;-64
2021/01/03 00:19:21;;;;;;;33.35;18.02;;;;;;;-0.38;89.01;99989.31;1674768;83;21168;-63
2021/01/03 00:21:50;;;;;;;36.70;17.55;;;;;;;-0.39;89.04;99985.91;1712396;83;21069;-64
2021/01/03 00:24:17;;;;;;;36.65;18.95;;;;;;;-0.38;89.09;99990.17;1717989;82;22212;-64
2021/01/03 00:26:44;;;;;;;;;;;;;;;-0.40;88.96;99999.56;1719563;82;21094;-64
2021/01/03 00:29:12;;;;;;;34.10;17.37;;;;;;;-0.44;88.91;100000.42;1714904;82;20552;-64
2021/01/03 00:31:49;;;;;;;33.53;18.60;;;;;;;-0.47;88.93;100005.55;1727454;82;21195;-63
2021/01/03 00:34:18;;;;;;;34.43;18.87;;;;;;;-0.51;89.02;99996.13;1707322;82;21171;-64
2021/01/03 00:36:45;;;;;;;30.05;18.32;;;;;;;-0.53;89.02;100001.27;1716761;82;22146;-64
2021/01/03 00:39:12;;;;;;;34.83;19.27;;;;;;;-0.51;89.08;100006.38;1719083;82;21069;-64
2021/01/03 00:41:40;;;;;;;38.70;20.43;;;;;;;-0.51;89.10;100008.95;1726348;82;21215;-64
2021/01/03 00:44:07;;;;;;;38.48;20.60;;;;;;;-0.50;89.12;100000.42;1717355;82;21049;-63
2021/01/03 00:46:34;;;;;;;38.25;22.13;;;;;;;-0.47;89.15;100002.98;1709071;82;21152;-64
2021/01/03 00:49:01;;;;;;;38.40;21.12;;;;;;;-0.50;89.07;100000.42;1723641;82;22631;-64
2021/01/03 00:51:28;;;;;;;40.43;21.73;;;;;;;-0.48;89.04;100005.10;1709735;82;21048;-64
2021/01/03 00:53:55;;;;;;;47.65;22.98;;;;;;;-0.48;89.05;100006.39;1720738;82;21846;-64
2021/01/03 00:56:24;;;;;;;39.45;21.52;;;;;;;-0.47;89.11;100005.55;1718282;82;21185;-64
2021/01/03 00:58:52;;;;;;;45.45;23.55;;;;;;;-0.47;89.07;100006.84;1716497;82;21235;-64
2021/01/03 01:01:21;;;;;;;40.98;21.87;;;;;;;-0.48;89.10;100008.95;1711788;82;22146;-64
2021/01/03 01:03:48;;;;;;;39.80;18.70;;;;;;;-0.48;89.04;100007.67;1709082;82;21582;-64
2021/01/03 01:06:16;;;;;;;32.85;18.77;;;;;;;-0.50;88.99;99995.29;1726124;82;21120;-64
2021/01/03 01:08:43;;;;;;;31.90;16.12;;;;;;;-0.54;88.92;99996.12;1720598;82;21076;-64
2021/01/03 01:11:12;;;;;;;34.95;17.15;;;;;;;-0.56;88.92;99992.69;1707328;82;27105;-64
2021/01/03 01:13:39;;;;;;;21.40;13.28;;;;;;;-0.59;88.96;99996.09;1713829;82;21223;-64
2021/01/03 01:16:09;;;;;;;26.05;14.83;;;;;;;-0.62;88.90;100001.22;1715312;82;21055;-64
2021/01/03 01:18:38;;;;;;;28.52;16.20;;;;;;;-0.76;88.92;99983.23;1713056;82;21136;-64
2021/01/03 01:21:07;;;;;;;22.98;15.30;;;;;;;-0.68;89.00;100002.06;1717617;82;21607;-64
2021/01/03 01:23:35;;;;;;;24.27;15.95;;;;;;;-0.68;89.05;99999.50;1709506;82;21195;-63
2021/01/03 01:26:02;;;;;;;25.90;15.05;;;;;;;-0.66;89.06;99998.66;1685687;84;21188;-64
2021/01/03 01:28:29;;;;;;;24.25;14.85;;;;;;;-0.66;89.01;99998.66;1678041;83;21225;-64
2021/01/03 01:30:58;;;;;;;31.07;17.48;;;;;;;-0.73;88.90;100002.91;1689444;84;28167;-64
2021/01/03 01:33:25;;;;;;;32.42;19.32;;;;;;;-0.79;88.95;100001.17;1674148;84;21207;-64
2021/01/03 01:35:52;;;;;;;;;;;;;;;-0.79;89.02;100005.02;1676721;84;21172;-64
2021/01/03 01:38:20;;;;;;;33.60;18.02;;;;;;;-0.80;89.07;100004.59;1686903;84;21307;-64
2021/01/03 01:40:47;;;;;;;32.40;16.70;;;;;;;-0.81;89.07;100005.46;1677066;84;21706;-64
2021/01/03 01:43:17;;;;;;;36.23;19.65;;;;;;;-0.83;88.99;100007.16;1696729;84;21155;-63
2021/01/03 01:45:47;;;;;;;35.35;19.73;;;;;;;-0.86;88.99;99999.45;1697948;83;20978;-64
2021/01/03 01:48:35;;;;;;;34.58;20.50;;;;;;;-0.87;89.04;99995.16;1680826;83;21255;-64
2021/01/03 01:51:22;;;;;;;38.23;21.15;;;;;;;-0.86;89.04;99985.36;1682364;84;21393;-63
2021/01/03 01:54:18;;;;;;;32.73;17.52;;;;;;;-0.88;89.08;99988.33;1683837;84;21596;-64
2021/01/03 01:57:03;;;;;;;33.90;18.02;;;;;;;-0.89;89.06;99985.35;1691111;84;21040;-64
2021/01/03 01:59:51;;;;;;;28.90;17.40;;;;;;;-0.94;89.04;99988.32;1698514;84;21180;-63
2021/01/03 02:02:26;;;;;;;29.25;17.05;;;;;;;-0.97;89.00;99984.47;1672818;84;21223;-63
2021/01/03 02:05:11;;;;;;;33.67;19.52;;;;;;;-0.99;89.01;99975.91;1693535;83;21645;-64
2021/01/03 02:07:43;;;;;;;31.97;17.73;;;;;;;-0.99;89.08;99982.31;1651378;86;21181;-64
2021/01/03 02:10:27;;;;;;;34.53;19.23;;;;;;;-0.95;89.08;99978.93;1832043;76;22788;-63
2021/01/03 02:13:30;;;;;;;29.42;17.65;;;;;;;-0.99;89.12;99982.31;1819396;77;21574;-64
2021/01/03 02:16:06;;;;;;;30.55;18.73;;;;;;;-0.98;89.05;99986.58;1817376;78;22209;-64
2021/01/03 02:18:33;;;;;;;29.72;18.57;;;;;;;-1.03;89.01;99984.45;1817030;78;21012;-64
2021/01/03 02:21:21;;;;;;;32.50;18.90;;;;;;;-1.07;89.01;99986.55;1821009;77;20997;-64
2021/01/03 02:24:15;;;;;;;31.00;18.12;;;;;;;-1.09;89.02;99993.37;1813172;77;21486;-64
2021/01/03 02:26:47;;;;;;;34.00;20.23;;;;;;;-1.10;89.08;99991.66;1812984;77;20984;-64
2021/01/03 02:29:18;;;;;;;34.78;20.17;;;;;;;-1.14;89.01;99976.28;1816948;78;21250;-65
2021/01/03 02:31:53;;;;;;;37.40;19.98;;;;;;;-1.16;89.08;99990.78;1821150;77;21040;-64
2021/01/03 02:34:34;;;;;;;37.28;20.90;;;;;;;-1.18;89.18;100001.88;1823995;78;21470;-64
2021/01/03 02:37:24;;;;;;;45.70;24.72;;;;;;;-1.20;89.17;100012.12;1824954;77;21150;-64
2021/01/03 02:40:03;;;;;;;43.78;23.70;;;;;;;-1.20;89.17;100008.29;1826397;77;21564;-64
2021/01/03 02:42:34;;;;;;;39.18;21.57;;;;;;;-1.19;89.19;100006.15;1818757;78;21098;-65
2021/01/03 02:45:10;;;;;;;34.33;21.42;;;;;;;-1.21;89.17;100005.27;1823725;78;20987;-65
2021/01/03 02:47:38;;;;;;;36.20;21.30;;;;;;;-1.21;89.19;100001.43;1818378;77;21138;-64
2021/01/03 02:50:10;;;;;;;38.92;22.80;;;;;;;-1.22;89.17;100011.26;1820760;77;21052;-65
2021/01/03 02:52:42;;;;;;;47.88;26.00;;;;;;;-1.23;89.20;100019.80;1827978;78;21118;-65
2021/01/03 02:55:11;;;;;;;43.38;25.00;;;;;;;-1.23;89.23;100022.37;1827220;77;21290;-66
2021/01/03 02:57:39;;;;;;;52.23;27.05;;;;;;;-1.22;89.23;100023.22;1825540;78;20929;-65
2021/01/03 03:00:10;;;;;;;;;;;;;;;-1.23;89.23;100013.40;1825801;78;21083;-65
2021/01/03 03:02:36;;;;;;;48.25;24.95;;;;;;;-1.24;89.29;100015.51;1815105;77;20269;-65
2021/01/03 03:05:06;;;;;;;47.78;25.27;;;;;;;-1.22;89.35;100007.41;1823536;77;21113;-65
2021/01/03 03:07:33;;;;;;;40.45;22.22;;;;;;;-1.21;89.31;100012.96;1820429;77;21198;-65
2021/01/03 03:10:00;;;;;;;50.00;25.45;;;;;;;-1.20;89.27;100009.57;1820028;78;21016;-65
2021/01/03 03:12:27;;;;;;;48.02;25.20;;;;;;;-1.21;89.25;100019.80;1822389;78;21182;-65
2021/01/03 03:14:54;;;;;;;57.90;27.80;;;;;;;-1.22;89.30;100011.26;1822383;78;20997;-65
2021/01/03 03:17:21;;;;;;;49.77;25.72;;;;;;;-1.19;89.42;100013.83;1823263;77;21554;-64
2021/01/03 03:19:50;;;;;;;47.55;24.55;;;;;;;-1.18;89.47;100014.69;1822369;78;21181;-65
2021/01/03 03:22:17;;;;;;;51.05;25.23;;;;;;;-1.18;89.43;100012.97;1817783;78;20948;-64
2021/01/03 03:24:44;;;;;;;42.55;23.07;;;;;;;-1.16;89.37;100018.97;1822696;77;21126;-65
2021/01/03 03:27:11;;;;;;;44.88;22.27;;;;;;;-1.16;89.38;100018.97;1823790;77;21004;-64
2021/01/03 03:29:38;;;;;;;45.08;22.67;;;;;;;-1.15;89.38;100019.42;1816380;77;22412;-65
2021/01/03 03:32:06;;;;;;;40.92;21.42;;;;;;;-1.14;89.42;100014.72;1821592;78;21624;-65
2021/01/03 03:34:33;;;;;;;39.65;21.68;;;;;;;-1.13;89.45;100015.14;1821127;78;20980;-64
2021/01/03 03:37:00;;;;;;;33.73;17.82;;;;;;;-1.19;89.45;100012.55;1823912;77;27184;-65
2021/01/03 03:39:28;;;;;;;33.10;17.65;;;;;;;-1.18;89.42;100009.56;1826087;77;21063;-64
2021/01/03 03:41:58;;;;;;;37.00;19.65;;;;;;;-1.19;89.40;100021.52;1823124;77;21557;-65
2021/01/03 03:44:27;;;;;;;30.75;17.32;;;;;;;-1.21;89.36;100028.33;1821851;77;22227;-65
2021/01/03 03:46:59;;;;;;;36.42;17.00;;;;;;;-1.22;89.39;100021.51;1826384;77;21593;-64
2021/01/03 03:49:26;;;;;;;35.20;17.70;;;;;;;-1.24;89.41;100021.91;1812148;78;21145;-65
2021/01/03 03:51:55;;;;;;;30.80;15.90;;;;;;;-1.26;89.46;100018.91;1812510;77;22171;-65
2021/01/03 03:54:23;;;;;;;30.35;17.20;;;;;;;-1.29;89.50;100001.81;1820893;77;21136;-65
2021/01/03 03:56:57;;;;;;;32.78;17.87;;;;;;;-1.31;89.60;100013.78;1830375;77;21126;-64
2021/01/03 03:59:25;;;;;;;34.98;18.20;;;;;;;-1.32;89.62;100017.17;1810761;78;21550;-65
2021/01/03 04:01:53;;;;;;;32.03;18.25;;;;;;;-1.33;89.63;100025.72;1825735;77;21059;-65
2021/01/03 04:04:23;;;;;;;34.83;18.27;;;;;;;-1.30;89.68;100030.85;1819338;77;21005;-64
2021/01/03 04:06:51;;;;;;;35.78;18.12;;;;;;;-1.28;89.74;100024.05;1826731;78;21059;-64
2021/01/03 04:09:19;;;;;;;32.10;19.35;;;;;;;-1.26;89.72;100022.36;1820655;78;21401;-65
2021/01/03 04:11:49;;;;;;;34.67;19.00;;;;;;;-1.23;89.76;100017.24;1822532;78;20976;-65
2021/01/03 04:14:21;;;;;;;40.12;19.20;;;;;;;-1.21;89.77;100009.11;1820837;78;20966;-65
2021/01/03 04:16:52;;;;;;;32.75;18.98;;;;;;;-1.18;89.81;100015.53;1820697;78;21047;-64
2021/01/03 04:19:21;;;;;;;32.65;18.42;;;;;;;-1.16;89.75;100029.22;1821306;77;21048;-65
2021/01/03 04:21:55;;;;;;;33.67;17.62;;;;;;;-1.13;89.76;100026.67;1819347;77;21366;-65
2021/01/03 04:24:23;;;;;;;38.50;19.48;;;;;;;-1.11;89.78;100039.94;1823074;78;21023;-64
2021/01/03 04:26:54;;;;;;;38.73;20.60;;;;;;;-1.10;89.84;100040.36;1821666;78;21028;-66
2021/01/03 04:29:22;;;;;;;31.70;17.32;;;;;;;-1.08;89.79;100043.79;1810720;78;21762;-65
2021/01/03 04:31:58;;;;;;;37.93;19.95;;;;;;;-1.09;89.74;100045.91;1830133;77;21154;-65
2021/01/03 04:34:27;;;;;;;35.57;19.17;;;;;;;-1.09;89.87;100048.46;1830145;77;21708;-65
2021/01/03 04:36:56;;;;;;;32.40;19.07;;;;;;;-1.07;89.84;100042.93;1824626;77;21088;-65
2021/01/03 04:39:26;;;;;;;33.55;19.85;;;;;;;-1.05;89.86;100046.37;1808286;77;20997;-64
2021/01/03 04:42:16;;;;;;;35.23;19.52;;;;;;;-1.05;89.88;100053.63;1817417;78;21036;-65
2021/01/03 04:44:50;;;;;;;38.63;19.73;;;;;;;-1.04;89.92;100051.91;1822404;77;21134;-66
2021/01/03 04:47:34;;;;;;;40.88;20.50;;;;;;;-1.03;89.97;100051.08;1821154;77;21190;-66
2021/01/03 04:50:36;;;;;;;38.75;19.80;;;;;;;-1.02;89.99;100061.76;1814933;77;21212;-65
2021/01/03 04:53:37;;;;;;;34.08;18.30;;;;;;;-1.00;90.01;100057.50;1815322;77;21621;-65
2021/01/03 04:56:41;;;;;;;28.60;15.50;;;;;;;-1.01;90.04;100057.94;1818961;78;21032;-64
2021/01/03 04:59:13;;;;;;;37.73;19.45;;;;;;;-1.00;90.12;100065.19;1819220;78;21005;-64
2021/01/03 05:02:12;;;;;;;35.33;17.87;;;;;;;-1.01;90.13;100076.27;1808647;78;21194;-64
2021/01/03 05:05:15;;;;;;;37.90;20.05;;;;;;;-0.98;90.16;100071.16;1817131;78;21039;-64
2021/01/03 05:07:47;;;;;;;30.08;18.23;;;;;;;-0.94;90.20;100075.47;1819311;78;21126;-65
2021/01/03 05:10:25;;;;;;;30.60;18.35;;;;;;;-0.90;90.21;100075.91;1830064;77;21055;-64
2021/01/03 05:13:23;;;;;;;;;;;;;;;-0.85;90.18;100078.07;1821749;77;21012;-64
2021/01/03 05:15:50;;;;;;;30.65;15.85;;;;;;;-0.80;90.20;100078.95;1826422;77;22346;-65
2021/01/03 05:18:17;;;;;;;32.90;18.55;;;;;;;-0.74;90.17;100071.28;1824943;77;20972;-65
2021/01/03 05:20:55;;;;;;;;;;;;;;;-0.73;90.13;100070.45;1822652;77;21072;-66
2021/01/03 05:23:28;;;;;;;33.20;17.92;;;;;;;-0.71;90.18;100071.30;1745022;80;20168;-65
2021/01/03 05:25:55;;;;;;;32.40;18.62;;;;;;;-0.70;90.11;100071.75;1741156;80;21131;-65
2021/01/03 05:28:28;;;;;;;34.27;17.60;;;;;;;-0.69;90.11;100065.75;1757615;79;22364;-66
2021/01/03 05:31:15;;;;;;;34.70;17.92;;;;;;;-0.68;90.13;100055.91;1750655;80;21016;-65
2021/01/03 05:34:00;;;;;;;28.60;14.85;;;;;;;-0.66;90.09;100057.65;1762867;80;21561;-65
2021/01/03 05:36:46;;;;;;;29.87;15.48;;;;;;;-0.66;90.09;100060.22;1725673;81;22006;-65
2021/01/03 05:39:21;;;;;;;27.70;14.75;;;;;;;-0.68;90.11;100052.06;1718494;81;21721;-65
2021/01/03 05:41:56;;;;;;;26.23;14.47;;;;;;;-0.69;90.17;100043.95;1723515;81;21219;-65
2021/01/03 05:44:33;;;;;;;22.05;12.63;;;;;;;-0.68;90.17;100042.24;1725140;81;21222;-65
2021/01/03 05:47:29;;;;;;;21.82;11.70;;;;;;;-0.69;90.14;100046.95;1730568;81;21186;-65
2021/01/03 05:50:26;;;;;;;20.45;11.43;;;;;;;-0.71;90.16;100050.78;1724716;81;21214;-65
2021/01/03 05:53:01;;;;;;;17.70;11.15;;;;;;;-0.72;90.16;100042.66;1727925;81;21247;-64
2021/01/03 05:55:30;;;;;;;20.17;11.33;;;;;;;-0.72;90.15;100033.69;1725914;81;21847;-65
2021/01/03 05:58:25;;;;;;;22.07;11.75;;;;;;;-0.72;90.18;100036.25;1720804;81;21216;-66
2021/01/03 06:01:30;;;;;;;17.95;10.03;;;;;;;-0.67;90.18;100037.56;1831889;76;22813;-63
2021/01/03 06:04:21;;;;;;;20.97;10.85;;;;;;;-0.71;90.17;100039.67;1805170;78;21006;-65
2021/01/03 06:07:00;;;;;;;20.90;11.45;;;;;;;-0.72;90.19;100041.38;1801872;78;21629;-64
2021/01/03 06:09:40;;;;;;;18.55;9.88;;;;;;;-0.72;90.20;100048.22;1793243;77;21016;-64
2021/01/03 06:12:18;;;;;;;12.35;7.47;;;;;;;-0.71;90.18;100047.36;1810484;78;20977;-64
2021/01/03 06:15:03;;;;;;;11.83;8.08;;;;;;;-0.71;90.18;100037.95;1761398;79;21202;-64
2021/01/03 06:17:46;;;;;;;13.68;7.80;;;;;;;-0.71;90.18;100044.80;1762695;80;21060;-64
2021/01/03 06:20:19;;;;;;;12.30;7.95;;;;;;;-0.71;90.17;100040.52;1761042;80;21207;-64
2021/01/03 06:22:51;;;;;;;17.98;8.15;;;;;;;-0.71;90.20;100044.37;1743088;80;21226;-64
2021/01/03 06:25:43;;;;;;;14.50;8.43;;;;;;;-0.69;90.20;100057.20;1759165;80;20946;-64
2021/01/03 06:28:18;;;;;;;11.35;6.92;;;;;;;-0.70;90.22;100051.23;1761290;80;21020;-65
2021/01/03 06:31:24;;;;;;;17.12;8.23;;;;;;;-0.70;90.22;100064.05;1776821;80;21147;-65
2021/01/03 06:34:18;;;;;;;12.47;7.87;;;;;;;-0.70;90.26;100071.75;1746544;81;21202;-65
2021/01/03 06:37:02;;;;;;;12.05;7.83;;;;;;;-0.70;90.29;100073.03;1743202;81;21044;-65
2021/01/03 06:40:07;;;;;;;14.78;8.33;;;;;;;-0.66;90.32;100075.59;1744638;81;20994;-65
2021/01/03 06:43:07;;;;;;;9.63;7.15;;;;;;;-0.64;90.29;100081.56;1750818;79;21172;-64
2021/01/03 06:46:20;;;;;;;11.65;6.83;;;;;;;-0.64;90.30;100081.56;1703794;83;21176;-64
2021/01/03 06:49:26;;;;;;;10.15;7.25;;;;;;;-0.63;90.29;100098.69;1707598;83;21607;-64
2021/01/03 06:52:28;;;;;;;13.48;7.83;;;;;;;-0.60;90.28;100078.19;1820156;76;22705;-63
2021/01/03 06:55:20;;;;;;;10.70;7.25;;;;;;;-0.65;90.26;100081.15;1779464;79;21079;-64
2021/01/03 06:58:39;;;;;;;10.53;7.15;;;;;;;-0.68;90.24;100089.25;1793491;79;21640;-64
2021/01/03 07:01:29;;;;;;;15.15;8.23;;;;;;;-0.70;90.28;100085.84;1781852;77;20980;-64
2021/01/03 07:03:59;;;;;;;11.65;6.58;;;;;;;-0.69;90.29;100092.68;1803684;77;21021;-64
2021/01/03 07:06:32;;;;;;;10.65;6.60;;;;;;;-0.70;90.30;100106.36;1794802;77;21069;-63
2021/01/03 07:09:10;;;;;;;8.33;5.83;;;;;;;-0.69;90.26;100105.50;1795193;78;20971;-64
2021/01/03 07:11:58;;;;;;;11.30;7.05;;;;;;;-0.71;90.17;100122.58;1791259;77;21604;-63
2021/01/03 07:14:30;;;;;;;13.20;7.58;;;;;;;-0.75;90.16;100109.33;1788899;77;21005;-63
2021/01/03 07:17:01;;;;;;;14.75;8.20;;;;;;;-0.78;90.18;100097.78;1801077;79;21616;-64
2021/01/03 07:19:42;;;;;;;14.10;7.80;;;;;;;-0.80;90.24;100111.00;1791056;78;21055;-63
2021/01/03 07:22:17;;;;;;;18.62;8.83;;;;;;;-0.81;90.24;100114.42;1801426;77;21152;-65
2021/01/03 07:24:55;;;;;;;15.98;8.25;;;;;;;-0.83;90.29;100109.71;1789858;77;21261;-65
2021/01/03 07:27:33;;;;;;;13.20;8.60;;;;;;;-0.82;90.30;100107.56;1784487;77;21535;-65
2021/01/03 07:30:08;;;;;;;16.73;9.45;;;;;;;-0.80;90.31;100119.13;1793672;77;21698;-64
2021/01/03 07:32:44;;;;;;;14.78;8.88;;;;;;;-0.81;90.28;100108.02;1738248;82;21257;-65
2021/01/03 07:35:24;;;;;;;13.65;8.45;;;;;;;-0.77;90.30;100117.42;1826588;76;23310;-64
2021/01/03 07:38:14;;;;;;;15.43;8.78;;;;;;;-0.83;90.34;100117.41;1802210;77;21059;-64
2021/01/03 07:41:04;;;;;;;14.83;9.80;;;;;;;-0.83;90.33;100122.53;1794075;77;21593;-63
2021/01/03 07:44:03;;;;;;;16.77;9.90;;;;;;;-0.77;90.36;100122.55;1874991;76;22728;-64
2021/01/03 07:46:53;;;;;;;16.80;10.10;;;;;;;-0.81;90.28;100125.08;1844372;77;21004;-64
2021/01/03 07:49:49;;;;;;;17.52;9.83;;;;;;;-0.84;90.33;100122.11;1844782;77;21131;-64
2021/01/03 07:52:24;;;;;;;15.65;9.15;;;;;;;-0.83;90.32;100119.11;1844240;76;21045;-65
2021/01/03 07:54:57;;;;;;;17.73;10.48;;;;;;;-0.86;90.29;100140.46;1848537;77;21771;-64
2021/01/03 07:57:26;;;;;;;19.80;9.73;;;;;;;-0.88;90.28;100139.58;1841358;77;21614;-66
2021/01/03 07:59:59;;;;;;;21.57;11.73;;;;;;;-0.91;90.30;100129.31;1841990;77;21573;-64
2021/01/03 08:02:31;;;;;;;19.48;11.25;;;;;;;-0.92;90.32;100125.05;1850353;77;21647;-66
2021/01/03 08:05:03;;;;;;;20.12;11.25;;;;;;;-0.93;90.31;100131.00;1854137;77;20988;-66
2021/01/03 08:07:30;;;;;;;18.77;10.70;;;;;;;-0.96;90.36;100143.80;1840800;77;21001;-64
2021/01/03 08:10:14;;;;;;;22.05;11.70;;;;;;;-0.96;90.36;100138.68;1843158;77;21004;-67
2021/01/03 08:12:53;;;;;;;19.57;10.70;;;;;;;-0.97;90.36;100136.98;1842781;77;21171;-67
2021/01/03 08:15:30;;;;;;;18.05;10.80;;;;;;;-0.98;90.42;100131.39;1850390;77;22207;-66
2021/01/03 08:18:07;;;;;;;17.52;10.68;;;;;;;-0.98;90.48;100124.59;1839354;77;21050;-66
2021/01/03 08:20:38;;;;;;;19.40;10.68;;;;;;;-0.98;90.44;100127.55;1856424;77;21013;-66
2021/01/03 08:23:28;;;;;;;16.80;9.23;;;;;;;-0.96;90.44;100132.27;1846271;77;21135;-66
2021/01/03 08:26:19;;;;;;;22.35;11.28;;;;;;;-0.95;90.40;100128.45;1846020;77;21051;-65
2021/01/03 08:29:39;;;;;;;19.12;11.20;;;;;;;-0.91;90.40;100135.73;1802689;77;22760;-66
2021/01/03 08:32:13;;;;;;;21.05;11.20;;;;;;;-0.97;90.44;100134.41;1780763;78;20994;-66
2021/01/03 08:34:44;;;;;;;16.85;11.05;;;;;;;-0.97;90.52;100135.69;1775454;80;21270;-67
2021/01/03 08:37:29;;;;;;;18.87;11.18;;;;;;;-0.97;90.49;100140.82;1785210;80;21646;-66
2021/01/03 08:40:13;;;;;;;19.52;11.40;;;;;;;-0.95;90.48;100130.16;1772665;79;21085;-66
2021/01/03 08:42:45;;;;;;;19.57;11.85;;;;;;;-0.92;90.52;100127.61;1776779;79;20966;-67
2021/01/03 08:45:24;;;;;;;20.45;11.12;;;;;;;-0.89;90.50;100136.60;1781563;78;21049;-65
2021/01/03 08:47:51;;;;;;;21.57;12.90;;;;;;;-0.92;90.52;100140.00;1776616;78;21185;-65
2021/01/03 08:50:29;;;;;;;22.75;12.58;;;;;;;-0.96;90.46;100130.98;1779023;78;21582;-66
2021/01/03 08:53:05;;;;;;;;;;;;;;;-0.93;90.47;100136.13;1775665;79;20990;-67
2021/01/03 08:55:39;;;;;;;19.35;12.30;;;;;;;-0.93;90.50;100143.39;1775676;80;20612;-65
2021/01/03 08:58:18;;;;;;;18.40;11.97;;;;;;;-0.93;90.49;100143.82;1776851;80;21164;-66
2021/01/03 09:00:54;;;;;;;18.75;11.73;;;;;;;-0.93;90.56;100136.13;1773206;80;22919;-65
2021/01/03 09:03:22;;;;;;;16.93;11.88;;;;;;;-0.91;90.53;100129.31;1770486;80;21653;-65
2021/01/03 09:05:51;;;;;;;18.77;11.05;;;;;;;-0.91;90.46;100129.31;1784555;78;21230;-65
2021/01/03 09:08:41;;;;;;;17.80;10.00;;;;;;;-0.89;90.49;100141.73;1773729;80;21262;-66
2021/01/03 09:11:22;;;;;;;19.48;11.40;;;;;;;-0.89;90.46;100137.88;1781616;80;21589;-67
2021/01/03 09:13:57;;;;;;;17.62;10.32;;;;;;;-0.88;90.45;100129.33;1783325;78;22119;-66
2021/01/03 09:16:55;;;;;;;18.98;10.60;;;;;;;-0.90;90.46;100128.45;1774169;78;21120;-65
2021/01/03 09:19:44;;;;;;;16.57;9.70;;;;;;;-0.89;90.45;100148.14;1698329;84;21217;-66
2021/01/03 09:22:36;;;;;;;18.87;11.48;;;;;;;-0.93;90.40;100146.38;1698077;84;21304;-65
2021/01/03 09:25:15;;;;;;;16.87;10.08;;;;;;;-0.97;90.38;100142.95;1692017;83;21235;-65
2021/01/03 09:27:44;;;;;;;13.55;8.60;;;;;;;-1.03;90.43;100142.07;1698633;83;22576;-65
2021/01/03 09:30:31;;;;;;;16.15;9.25;;;;;;;-1.05;90.55;100151.45;1697215;84;21236;-65
2021/01/03 09:33:26;;;;;;;14.10;9.20;;;;;;;-1.03;90.62;100131.39;1812387;76;28014;-64
2021/01/03 09:36:31;;;;;;;17.60;9.35;;;;;;;-1.01;90.53;100142.91;1805285;77;20974;-65
2021/01/03 09:39:27;;;;;;;15.30;8.90;;;;;;;-0.98;90.53;100141.25;1800605;77;21381;-63
2021/01/03 09:42:20;;;;;;;16.42;9.70;;;;;;;-0.95;90.60;100136.57;1791320;78;21016;-66
2021/01/03 09:45:20;;;;;;;19.12;10.28;;;;;;;-0.94;90.62;100143.41;1793109;78;21672;-65
2021/01/03 09:47:50;;;;;;;17.77;11.25;;;;;;;-0.93;90.62;100141.26;1803804;78;21004;-65
2021/01/03 09:50:47;;;;;;;18.52;10.30;;;;;;;-0.91;90.68;100142.13;1808723;77;20981;-65
2021/01/03 09:53:30;;;;;;;20.32;10.48;;;;;;;-0.90;90.69;100143.84;1814102;77;21197;-66
2021/01/03 09:56:02;;;;;;;17.60;9.70;;;;;;;-0.88;90.73;100140.87;1797871;78;20933;-65
2021/01/03 09:58:38;;;;;;;22.87;10.82;;;;;;;-0.88;90.81;100143.86;1792537;77;21027;-66
2021/01/03 10:01:26;;;;;;;17.80;10.38;;;;;;;-0.86;90.77;100145.59;1794792;78;21117;-65
2021/01/03 10:03:53;;;;;;;18.92;10.80;;;;;;;-0.82;90.77;100139.61;1793144;78;21220;-66
2021/01/03 10:06:34;;;;;;;17.57;10.03;;;;;;;-0.78;90.78;100143.92;1793573;78;22568;-66
2021/01/03 10:09:15;;;;;;;15.23;9.50;;;;;;;-0.76;90.79;100142.20;1792207;78;21712;-65
2021/01/03 10:11:44;;;;;;;17.50;9.45;;;;;;;-0.73;90.78;100140.97;1800747;78;21561;-65
2021/01/03 10:14:32;;;;;;;15.35;8.58;;;;;;;-0.72;90.75;100148.23;1799197;78;21605;-65
2021/01/03 10:17:20;;;;;;;19.90;9.73;;;;;;;-0.68;90.73;100135.41;1795416;77;21012;-65
2021/01/03 10:19:48;;;;;;;19.05;9.68;;;;;;;-0.65;90.76;100135.00;1809542;78;21046;-64
2021/01/03 10:22:49;;;;;;;19.75;9.48;;;;;;;-0.63;90.72;100126.90;1792984;77;21534;-66
2021/01/03 10:25:18;;;;;;;13.35;8.05;;;;;;;-0.62;90.73;100123.47;1636118;86;21795;-65
2021/01/03 10:28:15;;;;;;;15.35;8.43;;;;;;;-0.62;90.73;100129.45;1639816;86;21214;-64
2021/01/03 10:30:44;;;;;;;17.27;8.65;;;;;;;-0.60;90.67;100115.37;1637912;86;21174;-65
2021/01/03 10:33:12;;;;;;;13.18;8.13;;;;;;;-0.56;90.76;100115.80;1641082;86;21230;-65
2021/01/03 10:35:40;;;;;;;;;;;;;;;-0.60;90.69;100103.83;1643461;86;21087;-66
2021/01/03 10:38:09;;;;;;;16.25;8.95;;;;;;;-0.59;90.73;100104.25;1639160;86;20565;-65
2021/01/03 10:40:41;;;;;;;20.10;8.25;;;;;;;-0.56;90.73;100117.08;1641412;86;21037;-64
2021/01/03 10:43:08;;;;;;;18.60;9.28;;;;;;;-0.54;90.77;100112.83;1640397;86;21146;-65
2021/01/03 10:45:36;;;;;;;18.82;9.83;;;;;;;-0.52;90.76;100116.27;1614457;87;21692;-65
2021/01/03 10:48:05;;;;;;;17.73;9.83;;;;;;;-0.48;90.77;100125.27;1609953;87;21158;-66
2021/01/03 10:50:32;;;;;;;19.07;9.65;;;;;;;-0.47;90.79;100131.25;1588551;88;21176;-63
2021/01/03 10:52:59;;;;;;;19.15;10.58;;;;;;;-0.45;90.74;100121.83;1586864;90;21259;-63
2021/01/03 10:55:27;;;;;;;22.22;10.65;;;;;;;-0.44;90.77;100119.72;1591881;89;21199;-65
2021/01/03 10:57:57;;;;;;;16.60;9.55;;;;;;;-0.44;90.75;100109.89;1586813;89;21216;-65
2021/01/03 11:00:26;;;;;;;15.88;9.68;;;;;;;-0.42;90.81;100127.00;1591339;89;21249;-65
2021/01/03 11:02:53;;;;;;;17.50;8.93;;;;;;;-0.39;90.77;100137.27;1592750;88;21231;-64
2021/01/03 11:05:20;;;;;;;18.10;9.73;;;;;;;-0.37;90.72;100129.13;1593615;89;21236;-63
2021/01/03 11:07:47;;;;;;;14.95;9.18;;;;;;;-0.38;90.66;100127.43;1591001;89;21179;-63
2021/01/03 11:10:14;;;;;;;16.57;8.10;;;;;;;-0.38;90.58;100131.28;1592268;89;21670;-65
2021/01/03 11:12:41;;;;;;;;;;;;;;;-0.40;90.66;100129.13;1594981;89;21275;-64
2021/01/03 11:15:10;;;;;;;14.10;8.78;;;;;;;-0.39;90.59;100124.45;1592269;89;20520;-64
2021/01/03 11:17:37;;;;;;;14.35;8.70;;;;;;;-0.39;90.67;100129.58;1593442;89;21109;-64
2021/01/03 11:20:07;;;;;;;19.73;9.93;;;;;;;-0.36;90.52;100103.92;1592270;89;21223;-64
2021/01/03 11:22:33;;;;;;;14.55;8.93;;;;;;;-0.36;90.52;100103.92;1587988;89;21182;-64
2021/01/03 11:25:07;;;;;;;15.93;9.23;;;;;;;-0.34;90.59;100109.89;1620987;87;21615;-65
2021/01/03 11:27:37;;;;;;;19.23;9.53;;;;;;;-0.33;90.65;100093.67;1622798;87;21200;-65
2021/01/03 11:30:07;;;;;;;17.05;9.03;;;;;;;-0.30;90.62;100098.81;1626315;88;22060;-64
2021/01/03 11:32:39;;;;;;;15.85;9.45;;;;;;;-0.30;90.58;100103.94;1625170;86;21224;-63
2021/01/03 11:35:10;;;;;;;15.68;9.60;;;;;;;-0.29;90.50;100097.09;1624694;88;22468;-65
2021/01/03 11:37:36;;;;;;;13.13;8.30;;;;;;;-0.30;90.57;100091.11;1623483;87;21181;-64
2021/01/03 11:40:06;;;;;;;14.68;9.13;;;;;;;-0.30;90.54;100088.55;1624324;87;21214;-65
2021/01/03 11:42:38;;;;;;;17.85;9.58;;;;;;;-0.31;90.53;100097.11;1624704;88;21184;-64
2021/01/03 11:45:12;;;;;;;17.00;8.93;;;;;;;-0.31;90.47;100094.54;1625001;88;21141;-64
2021/01/03 11:47:42;;;;;;;19.90;10.78;;;;;;;-0.32;90.49;100097.94;1624361;88;21469;-63
2021/01/03 11:50:14;;;;;;;14.10;8.80;;;;;;;-0.33;90.47;100100.08;1621291;87;21237;-65
2021/01/03 11:52:45;;;;;;;17.48;9.33;;;;;;;-0.34;90.41;100104.77;1622203;88;21163;-64
2021/01/03 11:55:16;;;;;;;13.70;8.95;;;;;;;-0.36;90.40;100098.80;1622042;87;21196;-64
2021/01/03 11:57:48;;;;;;;11.30;6.72;;;;;;;-0.40;90.20;100107.31;1624021;87;21863;-64
2021/01/03 12:00:18;;;;;;;14.40;7.90;;;;;;;-0.42;90.32;100106.48;1620514;88;22171;-65